sensor_id;sensor_type;location;lat;lon;timestamp;temperature;humidity
23560;DHT22;11958;50.836;4.438;2023-04-08T00:00:19;8.90;84.90
23560;DHT22;11958;50.836;4.438;2023-04-08T00:02:45;8.80;85.20
23560;DHT22;11958;50.836;4.438;2023-04-08T00:05:11;8.90;85.30
23560;DHT22;11958;50.836;4.438;2023-04-08T00:07:36;8.80;85.00
23560;DHT22;11958;50.836;4.438;2023-04-08T00:10:02;9.00;84.90
23560;DHT22;11958;50.836;4.438;2023-04-08T00:12:29;9.10;84.80
23560;DHT22;11958;50.836;4.438;2023-04-08T00:14:54;8.90;84.40
23560;DHT22;11958;50.836;4.438;2023-04-08T00:17:20;9.00;84.80
23560;DHT22;11958;50.836;4.438;2023-04-08T00:19:46;8.90;84.80
23560;DHT22;11958;50.836;4.438;2023-04-08T00:22:12;8.90;84.80
23560;DHT22;11958;50.836;4.438;2023-04-08T00:24:37;8.80;85.30
23560;DHT22;11958;50.836;4.438;2023-04-08T00:27:04;8.90;85.50
23560;DHT22;11958;50.836;4.438;2023-04-08T00:29:30;8.70;85.50
23560;DHT22;11958;50.836;4.438;2023-04-08T00:31:56;8.70;85.80
23560;DHT22;11958;50.836;4.438;2023-04-08T00:34:22;8.80;85.90
23560;DHT22;11958;50.836;4.438;2023-04-08T00:36:49;8.90;85.50
23560;DHT22;11958;50.836;4.438;2023-04-08T00:39:14;8.90;85.50
23560;DHT22;11958;50.836;4.438;2023-04-08T00:41:40;8.80;85.30
23560;DHT22;11958;50.836;4.438;2023-04-08T00:44:06;8.80;85.50
23560;DHT22;11958;50.836;4.438;2023-04-08T00:46:38;8.80;85.80
23560;DHT22;11958;50.836;4.438;2023-04-08T00:49:04;8.90;85.40
23560;DHT22;11958;50.836;4.438;2023-04-08T00:51:33;8.80;85.80
23560;DHT22;11958;50.836;4.438;2023-04-08T00:54:01;8.80;85.90
23560;DHT22;11958;50.836;4.438;2023-04-08T00:56:30;8.80;86.00
23560;DHT22;11958;50.836;4.438;2023-04-08T00:58:56;8.80;86.20
23560;DHT22;11958;50.836;4.438;2023-04-08T01:04:16;8.90;86.00
23560;DHT22;11958;50.836;4.438;2023-04-08T01:09:23;8.90;85.70
23560;DHT22;11958;50.836;4.438;2023-04-08T01:11:50;8.90;85.60
23560;DHT22;11958;50.836;4.438;2023-04-08T01:14:20;8.80;85.70
23560;DHT22;11958;50.836;4.438;2023-04-08T01:16:48;8.70;85.80
23560;DHT22;11958;50.836;4.438;2023-04-08T01:19:29;8.80;85.50
23560;DHT22;11958;50.836;4.438;2023-04-08T01:22:14;8.80;85.90
23560;DHT22;11958;50.836;4.438;2023-04-08T01:24:44;8.90;85.70
23560;DHT22;11958;50.836;4.438;2023-04-08T01:27:13;8.90;85.80
23560;DHT22;11958;50.836;4.438;2023-04-08T01:29:41;8.80;85.50
23560;DHT22;11958;50.836;4.438;2023-04-08T01:32:08;9.00;85.20
23560;DHT22;11958;50.836;4.438;2023-04-08T01:34:36;9.00;85.10
23560;DHT22;11958;50.836;4.438;2023-04-08T01:37:03;9.00;85.40
23560;DHT22;11958;50.836;4.438;2023-04-08T01:39:30;9.00;85.40
23560;DHT22;11958;50.836;4.438;2023-04-08T01:41:57;8.90;85.50
23560;DHT22;11958;50.836;4.438;2023-04-08T01:44:25;9.00;85.70
23560;DHT22;11958;50.836;4.438;2023-04-08T01:46:53;9.00;85.70
23560;DHT22;11958;50.836;4.438;2023-04-08T01:49:19;9.00;85.80
23560;DHT22;11958;50.836;4.438;2023-04-08T01:51:47;9.00;86.00
23560;DHT22;11958;50.836;4.438;2023-04-08T01:54:13;9.00;85.70
23560;DHT22;11958;50.836;4.438;2023-04-08T01:56:41;9.10;85.40
23560;DHT22;11958;50.836;4.438;2023-04-08T01:59:12;9.00;85.90
23560;DHT22;11958;50.836;4.438;2023-04-08T02:01:38;8.80;86.30
23560;DHT22;11958;50.836;4.438;2023-04-08T02:04:05;8.70;86.80
23560;DHT22;11958;50.836;4.438;2023-04-08T02:06:31;8.70;86.80
23560;DHT22;11958;50.836;4.438;2023-04-08T02:09:00;8.70;86.90
23560;DHT22;11958;50.836;4.438;2023-04-08T02:11:26;8.70;87.00
23560;DHT22;11958;50.836;4.438;2023-04-08T02:13:52;8.70;86.90
23560;DHT22;11958;50.836;4.438;2023-04-08T02:16:33;8.80;86.60
23560;DHT22;11958;50.836;4.438;2023-04-08T02:19:28;8.70;87.30
23560;DHT22;11958;50.836;4.438;2023-04-08T02:21:59;8.60;87.10
23560;DHT22;11958;50.836;4.438;2023-04-08T02:24:26;8.70;87.20
23560;DHT22;11958;50.836;4.438;2023-04-08T02:26:54;8.70;86.80
23560;DHT22;11958;50.836;4.438;2023-04-08T02:29:21;8.80;86.90
23560;DHT22;11958;50.836;4.438;2023-04-08T02:31:48;8.90;86.80
23560;DHT22;11958;50.836;4.438;2023-04-08T02:34:15;8.80;87.10
23560;DHT22;11958;50.836;4.438;2023-04-08T02:36:42;8.80;86.90
23560;DHT22;11958;50.836;4.438;2023-04-08T02:39:10;8.70;86.70
23560;DHT22;11958;50.836;4.438;2023-04-08T02:41:36;8.70;86.70
23560;DHT22;11958;50.836;4.438;2023-04-08T02:44:01;8.50;87.40
23560;DHT22;11958;50.836;4.438;2023-04-08T02:46:27;8.70;87.30
23560;DHT22;11958;50.836;4.438;2023-04-08T02:48:53;8.70;87.40
23560;DHT22;11958;50.836;4.438;2023-04-08T02:51:19;8.70;87.10
23560;DHT22;11958;50.836;4.438;2023-04-08T02:53:44;8.70;87.30
23560;DHT22;11958;50.836;4.438;2023-04-08T02:56:10;8.70;87.80
23560;DHT22;11958;50.836;4.438;2023-04-08T02:58:36;8.60;87.60
23560;DHT22;11958;50.836;4.438;2023-04-08T03:01:02;8.50;88.10
23560;DHT22;11958;50.836;4.438;2023-04-08T03:03:27;8.60;88.00
23560;DHT22;11958;50.836;4.438;2023-04-08T03:05:57;8.50;88.10
23560;DHT22;11958;50.836;4.438;2023-04-08T03:08:23;8.50;88.60
23560;DHT22;11958;50.836;4.438;2023-04-08T03:10:49;8.50;88.90
23560;DHT22;11958;50.836;4.438;2023-04-08T03:13:15;8.60;89.10
23560;DHT22;11958;50.836;4.438;2023-04-08T03:15:41;8.60;89.30
23560;DHT22;11958;50.836;4.438;2023-04-08T03:18:08;8.70;89.00
23560;DHT22;11958;50.836;4.438;2023-04-08T03:20:33;8.70;89.10
23560;DHT22;11958;50.836;4.438;2023-04-08T03:22:59;8.70;89.40
23560;DHT22;11958;50.836;4.438;2023-04-08T03:25:25;8.80;89.40
23560;DHT22;11958;50.836;4.438;2023-04-08T03:27:50;9.00;88.60
23560;DHT22;11958;50.836;4.438;2023-04-08T03:30:16;9.00;88.40
23560;DHT22;11958;50.836;4.438;2023-04-08T03:32:42;8.90;88.30
23560;DHT22;11958;50.836;4.438;2023-04-08T03:35:08;8.90;88.40
23560;DHT22;11958;50.836;4.438;2023-04-08T03:37:33;8.80;88.80
23560;DHT22;11958;50.836;4.438;2023-04-08T03:39:59;8.80;88.90
23560;DHT22;11958;50.836;4.438;2023-04-08T03:42:25;8.90;89.00
23560;DHT22;11958;50.836;4.438;2023-04-08T03:44:51;8.90;89.00
23560;DHT22;11958;50.836;4.438;2023-04-08T03:47:17;8.90;89.00
23560;DHT22;11958;50.836;4.438;2023-04-08T03:49:42;8.90;89.40
23560;DHT22;11958;50.836;4.438;2023-04-08T03:52:08;8.80;89.20
23560;DHT22;11958;50.836;4.438;2023-04-08T03:54:34;9.00;88.40
23560;DHT22;11958;50.836;4.438;2023-04-08T03:56:59;8.80;88.70
23560;DHT22;11958;50.836;4.438;2023-04-08T03:59:25;9.00;88.90
23560;DHT22;11958;50.836;4.438;2023-04-08T04:01:51;8.70;89.00
23560;DHT22;11958;50.836;4.438;2023-04-08T04:04:18;8.70;89.80
23560;DHT22;11958;50.836;4.438;2023-04-08T04:06:44;8.60;90.30
23560;DHT22;11958;50.836;4.438;2023-04-08T04:09:09;8.80;89.70
23560;DHT22;11958;50.836;4.438;2023-04-08T04:11:36;8.80;89.90
23560;DHT22;11958;50.836;4.438;2023-04-08T04:14:02;9.00;90.20
23560;DHT22;11958;50.836;4.438;2023-04-08T04:16:28;8.80;89.20
23560;DHT22;11958;50.836;4.438;2023-04-08T04:18:53;8.80;89.60
23560;DHT22;11958;50.836;4.438;2023-04-08T04:21:19;8.70;90.50
23560;DHT22;11958;50.836;4.438;2023-04-08T04:23:45;8.60;90.60
23560;DHT22;11958;50.836;4.438;2023-04-08T04:26:11;8.90;90.60
23560;DHT22;11958;50.836;4.438;2023-04-08T04:28:37;8.90;90.20
23560;DHT22;11958;50.836;4.438;2023-04-08T04:31:03;8.70;90.90
23560;DHT22;11958;50.836;4.438;2023-04-08T04:33:29;8.70;91.00
23560;DHT22;11958;50.836;4.438;2023-04-08T04:35:55;8.70;91.30
23560;DHT22;11958;50.836;4.438;2023-04-08T04:38:21;8.70;91.40
23560;DHT22;11958;50.836;4.438;2023-04-08T04:40:47;8.70;91.20
23560;DHT22;11958;50.836;4.438;2023-04-08T04:43:13;8.80;91.20
23560;DHT22;11958;50.836;4.438;2023-04-08T04:45:38;8.80;90.90
23560;DHT22;11958;50.836;4.438;2023-04-08T04:48:04;8.80;91.10
23560;DHT22;11958;50.836;4.438;2023-04-08T04:50:30;8.80;91.30
23560;DHT22;11958;50.836;4.438;2023-04-08T04:52:55;8.70;91.20
23560;DHT22;11958;50.836;4.438;2023-04-08T04:55:21;8.60;91.70
23560;DHT22;11958;50.836;4.438;2023-04-08T04:57:47;8.50;91.90
23560;DHT22;11958;50.836;4.438;2023-04-08T05:00:14;8.70;92.00
23560;DHT22;11958;50.836;4.438;2023-04-08T05:02:40;8.60;91.90
23560;DHT22;11958;50.836;4.438;2023-04-08T05:05:06;8.80;92.00
23560;DHT22;11958;50.836;4.438;2023-04-08T05:07:35;8.80;91.40
23560;DHT22;11958;50.836;4.438;2023-04-08T05:10:01;8.90;91.50
23560;DHT22;11958;50.836;4.438;2023-04-08T05:12:27;8.90;91.10
23560;DHT22;11958;50.836;4.438;2023-04-08T05:14:53;8.80;91.20
23560;DHT22;11958;50.836;4.438;2023-04-08T05:17:19;8.80;91.30
23560;DHT22;11958;50.836;4.438;2023-04-08T05:19:44;8.70;91.80
23560;DHT22;11958;50.836;4.438;2023-04-08T05:22:10;8.70;91.70
23560;DHT22;11958;50.836;4.438;2023-04-08T05:24:36;8.70;91.90
23560;DHT22;11958;50.836;4.438;2023-04-08T05:27:02;8.70;92.30
23560;DHT22;11958;50.836;4.438;2023-04-08T05:29:27;8.80;91.90
23560;DHT22;11958;50.836;4.438;2023-04-08T05:31:53;8.90;91.10
23560;DHT22;11958;50.836;4.438;2023-04-08T05:34:19;8.80;91.70
23560;DHT22;11958;50.836;4.438;2023-04-08T05:36:48;8.90;91.30
23560;DHT22;11958;50.836;4.438;2023-04-08T05:39:19;8.90;91.40
23560;DHT22;11958;50.836;4.438;2023-04-08T05:41:45;8.90;91.30
23560;DHT22;11958;50.836;4.438;2023-04-08T05:44:12;8.90;91.20
23560;DHT22;11958;50.836;4.438;2023-04-08T05:46:40;8.90;91.10
23560;DHT22;11958;50.836;4.438;2023-04-08T05:49:06;9.10;91.40
23560;DHT22;11958;50.836;4.438;2023-04-08T05:51:32;9.00;91.00
23560;DHT22;11958;50.836;4.438;2023-04-08T05:53:57;9.00;91.20
23560;DHT22;11958;50.836;4.438;2023-04-08T05:56:23;8.90;91.20
23560;DHT22;11958;50.836;4.438;2023-04-08T05:58:49;8.90;92.00
23560;DHT22;11958;50.836;4.438;2023-04-08T06:01:14;8.70;91.70
23560;DHT22;11958;50.836;4.438;2023-04-08T06:03:40;8.80;92.20
23560;DHT22;11958;50.836;4.438;2023-04-08T06:06:10;8.80;91.90
23560;DHT22;11958;50.836;4.438;2023-04-08T06:08:39;8.80;92.30
23560;DHT22;11958;50.836;4.438;2023-04-08T06:11:04;8.80;92.20
23560;DHT22;11958;50.836;4.438;2023-04-08T06:13:31;9.00;91.80
23560;DHT22;11958;50.836;4.438;2023-04-08T06:15:57;9.00;91.70
23560;DHT22;11958;50.836;4.438;2023-04-08T06:18:22;9.00;91.00
23560;DHT22;11958;50.836;4.438;2023-04-08T06:20:48;9.10;91.20
23560;DHT22;11958;50.836;4.438;2023-04-08T06:23:14;9.20;91.20
23560;DHT22;11958;50.836;4.438;2023-04-08T06:25:40;9.20;90.90
23560;DHT22;11958;50.836;4.438;2023-04-08T06:28:06;9.20;90.40
23560;DHT22;11958;50.836;4.438;2023-04-08T06:30:32;9.30;90.40
23560;DHT22;11958;50.836;4.438;2023-04-08T06:32:57;9.20;90.40
23560;DHT22;11958;50.836;4.438;2023-04-08T06:35:23;9.10;90.80
23560;DHT22;11958;50.836;4.438;2023-04-08T06:37:49;9.30;90.40
23560;DHT22;11958;50.836;4.438;2023-04-08T06:40:15;9.30;90.10
23560;DHT22;11958;50.836;4.438;2023-04-08T06:42:40;9.30;90.00
23560;DHT22;11958;50.836;4.438;2023-04-08T06:45:09;9.20;90.10
23560;DHT22;11958;50.836;4.438;2023-04-08T06:47:35;9.20;90.30
23560;DHT22;11958;50.836;4.438;2023-04-08T06:50:01;9.20;90.50
23560;DHT22;11958;50.836;4.438;2023-04-08T06:52:26;9.40;89.80
23560;DHT22;11958;50.836;4.438;2023-04-08T06:54:52;9.70;89.30
23560;DHT22;11958;50.836;4.438;2023-04-08T06:57:18;9.60;89.30
23560;DHT22;11958;50.836;4.438;2023-04-08T06:59:43;9.70;89.00
23560;DHT22;11958;50.836;4.438;2023-04-08T07:02:09;9.90;88.30
23560;DHT22;11958;50.836;4.438;2023-04-08T07:04:36;9.80;86.90
23560;DHT22;11958;50.836;4.438;2023-04-08T07:07:02;10.00;87.00
23560;DHT22;11958;50.836;4.438;2023-04-08T07:09:27;9.90;86.20
23560;DHT22;11958;50.836;4.438;2023-04-08T07:11:53;9.80;86.70
23560;DHT22;11958;50.836;4.438;2023-04-08T07:14:19;9.70;87.10
23560;DHT22;11958;50.836;4.438;2023-04-08T07:16:44;9.90;86.80
23560;DHT22;11958;50.836;4.438;2023-04-08T07:19:10;9.80;87.10
23560;DHT22;11958;50.836;4.438;2023-04-08T07:21:36;10.00;86.30
23560;DHT22;11958;50.836;4.438;2023-04-08T07:24:02;10.10;85.90
23560;DHT22;11958;50.836;4.438;2023-04-08T07:26:27;10.10;84.90
23560;DHT22;11958;50.836;4.438;2023-04-08T07:28:53;10.00;84.90
23560;DHT22;11958;50.836;4.438;2023-04-08T07:31:19;9.90;85.30
23560;DHT22;11958;50.836;4.438;2023-04-08T07:33:45;9.90;85.20
23560;DHT22;11958;50.836;4.438;2023-04-08T07:36:11;10.20;84.50
23560;DHT22;11958;50.836;4.438;2023-04-08T07:38:38;10.20;84.40
23560;DHT22;11958;50.836;4.438;2023-04-08T07:41:04;10.40;83.50
23560;DHT22;11958;50.836;4.438;2023-04-08T07:43:30;10.30;82.70
23560;DHT22;11958;50.836;4.438;2023-04-08T07:46:02;10.10;83.70
23560;DHT22;11958;50.836;4.438;2023-04-08T07:48:30;10.00;83.00
23560;DHT22;11958;50.836;4.438;2023-04-08T07:50:56;10.20;83.60
23560;DHT22;11958;50.836;4.438;2023-04-08T07:53:21;10.40;83.00
23560;DHT22;11958;50.836;4.438;2023-04-08T07:55:51;10.40;81.80
23560;DHT22;11958;50.836;4.438;2023-04-08T07:58:16;10.50;81.40
23560;DHT22;11958;50.836;4.438;2023-04-08T08:00:42;10.50;81.60
23560;DHT22;11958;50.836;4.438;2023-04-08T08:03:08;10.70;80.90
23560;DHT22;11958;50.836;4.438;2023-04-08T08:05:35;10.50;80.40
23560;DHT22;11958;50.836;4.438;2023-04-08T08:08:01;10.70;80.90
23560;DHT22;11958;50.836;4.438;2023-04-08T08:10:27;10.90;80.10
23560;DHT22;11958;50.836;4.438;2023-04-08T08:12:52;11.00;79.70
23560;DHT22;11958;50.836;4.438;2023-04-08T08:15:18;10.80;79.80
23560;DHT22;11958;50.836;4.438;2023-04-08T08:17:44;10.80;79.50
23560;DHT22;11958;50.836;4.438;2023-04-08T08:20:10;10.80;80.20
23560;DHT22;11958;50.836;4.438;2023-04-08T08:22:36;10.90;80.10
23560;DHT22;11958;50.836;4.438;2023-04-08T08:25:04;10.80;79.60
23560;DHT22;11958;50.836;4.438;2023-04-08T08:27:30;10.50;80.70
23560;DHT22;11958;50.836;4.438;2023-04-08T08:29:56;10.30;81.50
23560;DHT22;11958;50.836;4.438;2023-04-08T08:32:21;10.50;81.80
23560;DHT22;11958;50.836;4.438;2023-04-08T08:34:47;10.60;81.20
23560;DHT22;11958;50.836;4.438;2023-04-08T08:37:13;10.40;81.70
23560;DHT22;11958;50.836;4.438;2023-04-08T08:39:38;10.40;81.90
23560;DHT22;11958;50.836;4.438;2023-04-08T08:42:04;10.70;81.80
23560;DHT22;11958;50.836;4.438;2023-04-08T08:44:30;11.00;79.90
23560;DHT22;11958;50.836;4.438;2023-04-08T08:46:56;10.80;80.10
23560;DHT22;11958;50.836;4.438;2023-04-08T08:49:21;10.70;80.40
23560;DHT22;11958;50.836;4.438;2023-04-08T08:51:48;10.80;80.10
23560;DHT22;11958;50.836;4.438;2023-04-08T08:54:15;10.80;79.80
23560;DHT22;11958;50.836;4.438;2023-04-08T08:56:41;10.80;79.90
23560;DHT22;11958;50.836;4.438;2023-04-08T08:59:08;11.00;79.60
23560;DHT22;11958;50.836;4.438;2023-04-08T09:01:38;11.30;79.50
23560;DHT22;11958;50.836;4.438;2023-04-08T09:04:16;11.60;77.50
23560;DHT22;11958;50.836;4.438;2023-04-08T09:06:44;11.70;76.50
23560;DHT22;11958;50.836;4.438;2023-04-08T09:09:11;11.80;76.40
23560;DHT22;11958;50.836;4.438;2023-04-08T09:11:38;12.20;75.30
23560;DHT22;11958;50.836;4.438;2023-04-08T09:14:05;12.20;74.70
23560;DHT22;11958;50.836;4.438;2023-04-08T09:16:41;12.50;74.60
23560;DHT22;11958;50.836;4.438;2023-04-08T09:19:09;12.80;72.80
23560;DHT22;11958;50.836;4.438;2023-04-08T09:21:39;13.10;70.50
23560;DHT22;11958;50.836;4.438;2023-04-08T09:24:06;13.20;70.60
23560;DHT22;11958;50.836;4.438;2023-04-08T09:26:32;13.30;68.60
23560;DHT22;11958;50.836;4.438;2023-04-08T09:29:05;13.90;66.70
23560;DHT22;11958;50.836;4.438;2023-04-08T09:31:33;13.80;67.50
23560;DHT22;11958;50.836;4.438;2023-04-08T09:34:09;13.70;65.70
23560;DHT22;11958;50.836;4.438;2023-04-08T09:36:36;13.50;68.90
23560;DHT22;11958;50.836;4.438;2023-04-08T09:39:33;13.00;70.20
23560;DHT22;11958;50.836;4.438;2023-04-08T09:41:59;12.70;71.80
23560;DHT22;11958;50.836;4.438;2023-04-08T09:44:28;12.50;73.90
23560;DHT22;11958;50.836;4.438;2023-04-08T09:47:11;12.50;73.60
23560;DHT22;11958;50.836;4.438;2023-04-08T09:49:50;12.30;72.30
23560;DHT22;11958;50.836;4.438;2023-04-08T09:52:30;12.30;73.00
23560;DHT22;11958;50.836;4.438;2023-04-08T09:55:07;12.50;73.60
23560;DHT22;11958;50.836;4.438;2023-04-08T09:57:45;12.90;71.00
23560;DHT22;11958;50.836;4.438;2023-04-08T10:00:15;13.30;69.90
23560;DHT22;11958;50.836;4.438;2023-04-08T10:02:55;13.20;69.10
23560;DHT22;11958;50.836;4.438;2023-04-08T10:05:24;12.90;69.70
23560;DHT22;11958;50.836;4.438;2023-04-08T10:07:51;13.10;70.10
23560;DHT22;11958;50.836;4.438;2023-04-08T10:10:18;13.10;69.80
23560;DHT22;11958;50.836;4.438;2023-04-08T10:12:44;12.80;70.30
23560;DHT22;11958;50.836;4.438;2023-04-08T10:17:53;13.30;67.60
23560;DHT22;11958;50.836;4.438;2023-04-08T10:20:40;13.30;67.10
23560;DHT22;11958;50.836;4.438;2023-04-08T10:23:07;13.20;67.60
23560;DHT22;11958;50.836;4.438;2023-04-08T10:25:38;13.00;67.30
23560;DHT22;11958;50.836;4.438;2023-04-08T10:33:13;13.60;64.30
23560;DHT22;11958;50.836;4.438;2023-04-08T10:35:47;13.50;64.80
23560;DHT22;11958;50.836;4.438;2023-04-08T10:38:16;13.40;64.10
23560;DHT22;11958;50.836;4.438;2023-04-08T10:40:43;13.30;64.10
23560;DHT22;11958;50.836;4.438;2023-04-08T10:43:11;13.40;65.40
23560;DHT22;11958;50.836;4.438;2023-04-08T10:45:37;13.50;65.10
23560;DHT22;11958;50.836;4.438;2023-04-08T10:48:24;13.50;63.90
23560;DHT22;11958;50.836;4.438;2023-04-08T10:51:00;13.70;63.90
23560;DHT22;11958;50.836;4.438;2023-04-08T10:53:29;13.40;64.30
23560;DHT22;11958;50.836;4.438;2023-04-08T10:56:06;13.40;65.20
23560;DHT22;11958;50.836;4.438;2023-04-08T10:58:32;13.60;64.40
23560;DHT22;11958;50.836;4.438;2023-04-08T11:01:05;13.70;63.80
23560;DHT22;11958;50.836;4.438;2023-04-08T11:03:32;13.60;64.40
23560;DHT22;11958;50.836;4.438;2023-04-08T11:05:59;13.40;65.20
23560;DHT22;11958;50.836;4.438;2023-04-08T11:08:30;13.40;64.70
23560;DHT22;11958;50.836;4.438;2023-04-08T11:10:57;13.20;65.30
23560;DHT22;11958;50.836;4.438;2023-04-08T11:13:27;13.00;66.60
23560;DHT22;11958;50.836;4.438;2023-04-08T11:15:54;13.00;66.80
23560;DHT22;11958;50.836;4.438;2023-04-08T11:18:21;13.50;66.00
23560;DHT22;11958;50.836;4.438;2023-04-08T11:20:49;13.50;65.50
23560;DHT22;11958;50.836;4.438;2023-04-08T11:23:16;13.50;65.40
23560;DHT22;11958;50.836;4.438;2023-04-08T11:25:43;13.50;64.90
23560;DHT22;11958;50.836;4.438;2023-04-08T11:28:10;13.50;65.30
23560;DHT22;11958;50.836;4.438;2023-04-08T11:30:40;13.70;62.90
23560;DHT22;11958;50.836;4.438;2023-04-08T11:33:06;14.10;61.80
23560;DHT22;11958;50.836;4.438;2023-04-08T11:35:32;14.40;60.90
23560;DHT22;11958;50.836;4.438;2023-04-08T11:37:58;14.60;60.30
23560;DHT22;11958;50.836;4.438;2023-04-08T11:40:24;15.00;58.90
23560;DHT22;11958;50.836;4.438;2023-04-08T11:42:51;14.60;60.60
23560;DHT22;11958;50.836;4.438;2023-04-08T11:45:19;14.80;60.30
23560;DHT22;11958;50.836;4.438;2023-04-08T11:47:46;14.70;60.10
23560;DHT22;11958;50.836;4.438;2023-04-08T11:50:24;14.90;59.80
23560;DHT22;11958;50.836;4.438;2023-04-08T11:52:51;15.10;58.70
23560;DHT22;11958;50.836;4.438;2023-04-08T11:55:28;15.20;59.10
23560;DHT22;11958;50.836;4.438;2023-04-08T11:57:55;15.00;60.00
23560;DHT22;11958;50.836;4.438;2023-04-08T12:00:22;14.60;61.70
23560;DHT22;11958;50.836;4.438;2023-04-08T12:02:48;14.40;61.30
23560;DHT22;11958;50.836;4.438;2023-04-08T12:05:14;14.30;61.90
23560;DHT22;11958;50.836;4.438;2023-04-08T12:07:41;14.30;61.60
23560;DHT22;11958;50.836;4.438;2023-04-08T12:10:08;14.00;63.60
23560;DHT22;11958;50.836;4.438;2023-04-08T12:12:34;13.80;63.80
23560;DHT22;11958;50.836;4.438;2023-04-08T12:14:59;13.80;64.70
23560;DHT22;11958;50.836;4.438;2023-04-08T12:17:25;14.00;64.30
23560;DHT22;11958;50.836;4.438;2023-04-08T12:19:51;13.80;65.30
23560;DHT22;11958;50.836;4.438;2023-04-08T12:22:16;13.90;63.90
23560;DHT22;11958;50.836;4.438;2023-04-08T12:24:42;14.10;64.10
23560;DHT22;11958;50.836;4.438;2023-04-08T12:27:08;14.50;61.90
23560;DHT22;11958;50.836;4.438;2023-04-08T12:29:33;14.70;62.10
23560;DHT22;11958;50.836;4.438;2023-04-08T12:31:59;14.60;61.80
23560;DHT22;11958;50.836;4.438;2023-04-08T12:34:25;14.70;62.10
23560;DHT22;11958;50.836;4.438;2023-04-08T12:36:50;14.30;62.50
23560;DHT22;11958;50.836;4.438;2023-04-08T12:39:16;14.20;62.80
23560;DHT22;11958;50.836;4.438;2023-04-08T12:41:42;14.20;64.20
23560;DHT22;11958;50.836;4.438;2023-04-08T12:44:07;14.80;61.60
23560;DHT22;11958;50.836;4.438;2023-04-08T12:46:33;14.90;61.80
23560;DHT22;11958;50.836;4.438;2023-04-08T12:48:59;15.60;58.40
23560;DHT22;11958;50.836;4.438;2023-04-08T12:51:25;15.50;57.50
23560;DHT22;11958;50.836;4.438;2023-04-08T12:53:51;15.80;57.10
23560;DHT22;11958;50.836;4.438;2023-04-08T12:56:16;15.90;56.30
23560;DHT22;11958;50.836;4.438;2023-04-08T12:58:42;16.40;53.10
23560;DHT22;11958;50.836;4.438;2023-04-08T13:01:08;17.10;50.40
23560;DHT22;11958;50.836;4.438;2023-04-08T13:03:36;17.30;49.40
23560;DHT22;11958;50.836;4.438;2023-04-08T13:06:02;17.50;49.80
23560;DHT22;11958;50.836;4.438;2023-04-08T13:08:28;17.80;49.10
23560;DHT22;11958;50.836;4.438;2023-04-08T13:10:54;18.00;47.90
23560;DHT22;11958;50.836;4.438;2023-04-08T13:13:20;17.50;48.90
23560;DHT22;11958;50.836;4.438;2023-04-08T13:15:45;17.10;50.10
23560;DHT22;11958;50.836;4.438;2023-04-08T13:18:11;16.60;51.50
23560;DHT22;11958;50.836;4.438;2023-04-08T13:20:37;16.40;51.70
23560;DHT22;11958;50.836;4.438;2023-04-08T13:23:03;16.80;50.90
23560;DHT22;11958;50.836;4.438;2023-04-08T13:25:29;18.00;49.20
23560;DHT22;11958;50.836;4.438;2023-04-08T13:27:55;18.30;47.00
23560;DHT22;11958;50.836;4.438;2023-04-08T13:30:21;17.90;48.00
23560;DHT22;11958;50.836;4.438;2023-04-08T13:32:47;17.70;50.20
23560;DHT22;11958;50.836;4.438;2023-04-08T13:35:16;19.20;44.30
23560;DHT22;11958;50.836;4.438;2023-04-08T13:37:42;20.20;41.80
23560;DHT22;11958;50.836;4.438;2023-04-08T13:40:08;20.90;41.60
23560;DHT22;11958;50.836;4.438;2023-04-08T13:42:34;21.80;37.80
23560;DHT22;11958;50.836;4.438;2023-04-08T13:45:00;23.00;36.20
23560;DHT22;11958;50.836;4.438;2023-04-08T13:47:26;24.40;32.60
23560;DHT22;11958;50.836;4.438;2023-04-08T13:49:52;24.80;31.30
23560;DHT22;11958;50.836;4.438;2023-04-08T13:52:18;24.30;32.40
23560;DHT22;11958;50.836;4.438;2023-04-08T13:54:44;24.40;31.40
23560;DHT22;11958;50.836;4.438;2023-04-08T13:57:10;24.50;30.90
23560;DHT22;11958;50.836;4.438;2023-04-08T13:59:36;24.50;31.00
23560;DHT22;11958;50.836;4.438;2023-04-08T14:02:01;24.60;30.10
23560;DHT22;11958;50.836;4.438;2023-04-08T14:04:27;23.80;32.00
23560;DHT22;11958;50.836;4.438;2023-04-08T14:06:53;22.00;34.50
23560;DHT22;11958;50.836;4.438;2023-04-08T14:09:19;19.20;40.70
23560;DHT22;11958;50.836;4.438;2023-04-08T14:11:45;18.10;44.10
23560;DHT22;11958;50.836;4.438;2023-04-08T14:14:12;17.20;46.40
23560;DHT22;11958;50.836;4.438;2023-04-08T14:16:37;16.40;49.40
23560;DHT22;11958;50.836;4.438;2023-04-08T14:19:03;16.00;50.60
23560;DHT22;11958;50.836;4.438;2023-04-08T14:21:39;16.00;50.60
23560;DHT22;11958;50.836;4.438;2023-04-08T14:24:07;15.90;51.60
23560;DHT22;11958;50.836;4.438;2023-04-08T14:26:33;16.30;49.60
23560;DHT22;11958;50.836;4.438;2023-04-08T14:29:08;16.00;49.70
23560;DHT22;11958;50.836;4.438;2023-04-08T14:31:34;15.60;50.70
23560;DHT22;11958;50.836;4.438;2023-04-08T14:34:01;15.50;51.50
23560;DHT22;11958;50.836;4.438;2023-04-08T14:36:27;15.30;53.40
23560;DHT22;11958;50.836;4.438;2023-04-08T14:38:54;15.20;54.00
23560;DHT22;11958;50.836;4.438;2023-04-08T14:41:20;15.00;55.00
23560;DHT22;11958;50.836;4.438;2023-04-08T14:43:46;15.00;55.20
23560;DHT22;11958;50.836;4.438;2023-04-08T14:46:12;15.00;55.20
23560;DHT22;11958;50.836;4.438;2023-04-08T14:48:38;15.10;55.00
23560;DHT22;11958;50.836;4.438;2023-04-08T14:51:05;15.20;54.90
23560;DHT22;11958;50.836;4.438;2023-04-08T14:53:31;15.40;54.20
23560;DHT22;11958;50.836;4.438;2023-04-08T14:55:57;16.20;51.00
23560;DHT22;11958;50.836;4.438;2023-04-08T14:58:23;16.70;49.00
23560;DHT22;11958;50.836;4.438;2023-04-08T15:00:49;17.20;47.70
23560;DHT22;11958;50.836;4.438;2023-04-08T15:03:15;17.60;47.70
23560;DHT22;11958;50.836;4.438;2023-04-08T15:05:42;18.40;43.60
23560;DHT22;11958;50.836;4.438;2023-04-08T15:08:08;18.20;44.10
23560;DHT22;11958;50.836;4.438;2023-04-08T15:10:33;16.80;48.40
23560;DHT22;11958;50.836;4.438;2023-04-08T15:13:00;16.20;50.50
23560;DHT22;11958;50.836;4.438;2023-04-08T15:15:26;16.00;51.00
23560;DHT22;11958;50.836;4.438;2023-04-08T15:17:51;15.90;51.10
23560;DHT22;11958;50.836;4.438;2023-04-08T15:20:17;15.60;51.80
23560;DHT22;11958;50.836;4.438;2023-04-08T15:22:44;15.20;53.80
23560;DHT22;11958;50.836;4.438;2023-04-08T15:25:10;14.80;55.80
23560;DHT22;11958;50.836;4.438;2023-04-08T15:27:36;14.50;56.10
23560;DHT22;11958;50.836;4.438;2023-04-08T15:30:03;14.50;55.80
23560;DHT22;11958;50.836;4.438;2023-04-08T15:32:29;14.50;57.00
23560;DHT22;11958;50.836;4.438;2023-04-08T15:34:55;14.60;55.50
23560;DHT22;11958;50.836;4.438;2023-04-08T15:37:20;14.60;56.30
23560;DHT22;11958;50.836;4.438;2023-04-08T15:39:47;14.80;55.90
23560;DHT22;11958;50.836;4.438;2023-04-08T15:42:13;14.90;56.20
23560;DHT22;11958;50.836;4.438;2023-04-08T15:44:38;15.00;55.90
23560;DHT22;11958;50.836;4.438;2023-04-08T15:47:04;15.40;54.70
23560;DHT22;11958;50.836;4.438;2023-04-08T15:49:29;15.30;54.40